Time;durP1;ratioP1;P1;durP2;ratioP2;P2;SDS_P1;SDS_P2;PMS_P1;PMS_P2;Temp;Humidity;BMP_temperature;BMP_pressure;BME280_temperature;BME280_humidity;BME280_pressure;Samples;Min_cycle;Max_cycle;Signal;HPM_P1;HPM_P2
2021/09/21 00:00:45;;;;;;;36.42;19.80;;;;;;;5.32;79.69;101412.09;1630185;88;21173;-77
2021/09/21 00:03:11;;;;;;;40.55;21.95;;;;;;;5.33;79.72;101413.80;1629957;88;21023;-77
2021/09/21 00:05:37;;;;;;;36.90;20.70;;;;;;;5.34;79.76;101412.84;1630310;88;21574;-77
2021/09/21 00:08:04;;;;;;;29.87;16.48;;;;;;;5.34;79.79;101415.48;1630451;88;21070;-77
2021/09/21 00:10:30;;;;;;;29.63;17.25;;;;;;;5.34;79.82;101418.61;1629896;88;21079;-77
2021/09/21 00:12:56;;;;;;;33.95;19.40;;;;;;;5.33;79.86;101415.11;1630160;87;21698;-77
2021/09/21 00:15:22;;;;;;;30.02;18.67;;;;;;;5.33;79.89;101413.80;1630294;88;21019;-77
2021/09/21 00:17:49;;;;;;;29.27;18.30;;;;;;;5.34;79.91;101410.67;1630086;87;21056;-77
2021/09/21 00:20:17;;;;;;;31.10;18.07;;;;;;;5.35;79.93;101412.34;1630437;88;21071;-77
2021/09/21 00:22:44;;;;;;;35.10;18.98;;;;;;;5.33;79.94;101403.21;1629979;88;21087;-77
2021/09/21 00:25:11;;;;;;;31.82;16.82;;;;;;;5.33;80.00;101405.86;1630300;88;21159;-77
2021/09/21 00:27:37;;;;;;;33.13;17.52;;;;;;;5.36;80.02;101410.92;1641973;87;21563;-77
2021/09/21 00:30:04;;;;;;;29.72;16.37;;;;;;;5.37;80.06;101417.91;1644463;87;21637;-77
2021/09/21 00:32:32;;;;;;;31.57;16.97;;;;;;;5.37;80.11;101412.61;1644224;87;21551;-77
2021/09/21 00:34:58;;;;;;;29.87;16.48;;;;;;;5.38;80.12;101411.64;1644613;87;21053;-77
2021/09/21 00:37:24;;;;;;;36.13;18.70;;;;;;;5.40;80.14;101405.77;1644612;87;21113;-77
2021/09/21 00:39:50;;;;;;;29.12;16.48;;;;;;;5.42;80.17;101415.75;1644195;87;21035;-77
2021/09/21 00:42:25;;;;;;;29.50;15.55;;;;;;;5.46;80.20;101417.22;1644697;87;21002;-77
2021/09/21 00:44:58;;;;;;;31.07;17.55;;;;;;;5.49;80.22;101419.64;1644601;87;21495;-77
2021/09/21 00:47:24;;;;;;;31.33;17.07;;;;;;;5.54;80.24;101422.80;1643344;86;21078;-77
2021/09/21 00:49:51;;;;;;;31.52;16.35;;;;;;;5.61;80.28;101423.67;1644613;87;21818;-78
2021/09/21 00:52:16;;;;;;;35.68;16.60;;;;;;;5.65;80.31;101422.02;1644508;87;21046;-77
2021/09/21 00:54:43;;;;;;;32.48;17.05;;;;;;;5.69;80.30;101427.92;1619853;87;21098;-77
2021/09/21 00:57:09;;;;;;;35.43;16.55;;;;;;;5.73;80.34;101420.13;1644647;87;21038;-78
2021/09/21 00:59:35;;;;;;;31.68;17.73;;;;;;;5.78;80.37;101416.64;1644684;87;21125;-77
2021/09/21 01:02:01;;;;;;;34.15;18.02;;;;;;;5.82;80.40;101420.28;1643956;87;21207;-77
2021/09/21 01:04:27;;;;;;;30.00;15.35;;;;;;;5.87;80.45;101413.36;1644534;87;21066;-78
2021/09/21 01:06:54;;;;;;;27.98;14.25;;;;;;;5.91;80.47;101420.12;1644338;87;21050;-77
2021/09/21 01:09:21;;;;;;;22.52;12.68;;;;;;;5.94;80.50;101415.91;1644413;87;21029;-78
2021/09/21 01:11:56;;;;;;;28.40;14.05;;;;;;;5.99;80.54;101415.07;1644516;85;21074;-76
2021/09/21 01:14:22;;;;;;;23.18;13.05;;;;;;;6.02;80.56;101417.00;1644310;87;21155;-78
2021/09/21 01:16:48;;;;;;;27.90;14.15;;;;;;;6.07;80.58;101419.80;1619958;87;21022;-78
2021/09/21 01:19:15;;;;;;;30.60;16.05;;;;;;;6.12;80.62;101421.62;1644425;87;21014;-78
2021/09/21 01:21:43;;;;;;;30.25;16.12;;;;;;;6.16;80.67;101415.14;1644410;87;21289;-78
2021/09/21 01:24:10;;;;;;;26.82;15.13;;;;;;;6.19;80.68;101420.20;1644361;87;21023;-78
2021/09/21 01:26:36;;;;;;;22.07;15.15;;;;;;;6.22;80.71;101428.76;1640248;87;21760;-78
2021/09/21 01:29:03;;;;;;;29.75;20.15;;;;;;;6.23;80.75;101437.05;1630092;88;21677;-78
2021/09/21 01:31:29;;;;;;;29.87;19.82;;;;;;;6.24;80.78;101440.06;1629524;88;21154;-78
2021/09/21 01:33:57;;;;;;;29.65;19.70;;;;;;;6.31;80.80;101439.96;1630368;88;21024;-78
2021/09/21 01:36:24;;;;;;;28.00;19.50;;;;;;;6.38;80.82;101427.94;1630097;88;21536;-78
2021/09/21 01:38:50;;;;;;;32.73;21.45;;;;;;;6.42;80.87;101441.31;1630315;88;21311;-77
2021/09/21 01:41:16;;;;;;;34.25;22.48;;;;;;;6.48;80.91;101442.16;1630237;88;21529;-77
2021/09/21 01:43:44;;;;;;;39.80;24.80;;;;;;;6.53;80.94;101432.54;1630299;88;21018;-78
2021/09/21 01:46:13;;;;;;;41.25;24.18;;;;;;;6.58;80.99;101438.31;1630184;88;21493;-77
2021/09/21 01:48:39;;;;;;;42.60;25.60;;;;;;;6.63;81.02;101433.98;1630203;87;21092;-77
2021/09/21 01:51:10;;;;;;;44.42;26.27;;;;;;;6.69;81.05;101434.34;1630317;88;21811;-77
2021/09/21 01:53:50;;;;;;;36.65;24.70;;;;;;;6.75;81.08;101442.32;1629016;88;21036;-78
2021/09/21 01:58:54;;;;;;;47.40;29.42;;;;;;;6.79;81.18;101426.55;1630032;88;21102;-77
2021/09/21 02:01:25;;;;;;;63.70;38.15;;;;;;;6.81;81.24;101430.75;1630128;87;21066;-77
2021/09/21 02:03:55;;;;;;;70.28;40.75;;;;;;;6.85;81.27;101424.73;1630289;88;21195;-78
2021/09/21 02:06:33;;;;;;;;;;;;;;;6.89;81.32;101424.85;1632261;88;21030;-77
2021/09/21 02:08:49;;;;;;;77.95;48.28;;;;;;;6.91;81.35;101420.25;1629890;88;20420;-78
2021/09/21 02:11:15;;;;;;;84.45;49.38;;;;;;;6.95;81.40;101423.03;1630070;87;21178;-78
2021/09/21 02:13:41;;;;;;;110.12;62.55;;;;;;;6.96;81.44;101417.62;1630233;88;21071;-77
2021/09/21 02:16:08;;;;;;;96.80;57.27;;;;;;;7.02;81.46;101412.30;1630069;88;21105;-78
2021/09/21 02:18:34;;;;;;;79.00;46.18;;;;;;;7.06;81.50;101405.78;1630163;88;21043;-78
2021/09/21 02:21:00;;;;;;;76.37;44.25;;;;;;;7.11;81.54;101400.94;1630242;88;21047;-78
2021/09/21 02:23:26;;;;;;;116.15;68.52;;;;;;;7.14;81.58;101404.70;1630258;88;21091;-78
2021/09/21 02:25:52;;;;;;;107.07;65.28;;;;;;;7.19;81.63;101409.13;1630517;88;21109;-78
2021/09/21 02:28:19;;;;;;;94.77;57.40;;;;;;;7.20;81.64;101402.02;1641746;87;22124;-77
2021/09/21 02:30:45;;;;;;;93.58;52.98;;;;;;;7.21;81.68;101405.89;1644300;87;21171;-77
2021/09/21 02:33:12;;;;;;;82.20;50.73;;;;;;;7.25;81.74;101404.65;1644524;87;21018;-78
2021/09/21 02:35:40;;;;;;;86.00;50.48;;;;;;;7.28;81.77;101405.73;1644424;87;21035;-77
2021/09/21 02:38:06;;;;;;;87.22;50.15;;;;;;;7.31;81.82;101408.64;1644553;87;21081;-77
2021/09/21 02:40:32;;;;;;;64.92;42.17;;;;;;;7.34;81.85;101407.91;1644321;87;21142;-78
2021/09/21 02:42:59;;;;;;;69.10;40.98;;;;;;;7.36;81.88;101413.92;1644624;87;21066;-77
2021/09/21 02:45:25;;;;;;;67.70;41.60;;;;;;;7.40;81.93;101419.82;1644314;87;21103;-77
2021/09/21 02:47:50;;;;;;;69.55;40.85;;;;;;;7.42;81.97;101420.05;1644410;87;20915;-78
2021/09/21 02:50:17;;;;;;;67.27;41.80;;;;;;;7.44;82.01;101424.77;1644428;87;21542;-77
2021/09/21 02:52:42;;;;;;;67.25;41.02;;;;;;;7.45;82.02;101425.12;1644232;87;21879;-78
2021/09/21 02:55:09;;;;;;;68.10;37.58;;;;;;;7.49;82.05;101424.39;1644324;87;21023;-78
2021/09/21 02:57:35;;;;;;;64.47;37.60;;;;;;;7.49;82.07;101425.22;1644544;87;21118;-78
2021/09/21 03:00:07;;;;;;;64.10;38.95;;;;;;;7.53;82.10;101429.30;1644383;87;21130;-78
2021/09/21 03:02:34;;;;;;;62.65;38.90;;;;;;;7.56;82.13;101416.77;1643735;86;21522;-78
2021/09/21 03:05:04;;;;;;;72.00;38.17;;;;;;;7.58;82.17;101416.15;1644671;87;21807;-78
2021/09/21 03:07:45;;;;;;;67.15;37.05;;;;;;;7.57;82.18;101420.61;1643917;87;21026;-78
2021/09/21 03:10:35;;;;;;;69.10;37.48;;;;;;;7.57;82.19;101418.44;1644590;87;21066;-77
2021/09/21 03:13:12;;;;;;;63.15;37.45;;;;;;;7.57;82.23;101426.40;1643119;85;21135;-78
2021/09/21 03:18:06;;;;;;;61.28;38.55;;;;;;;7.58;82.28;101431.59;1644715;87;22038;-78
2021/09/21 03:20:32;;;;;;;65.00;37.70;;;;;;;7.60;82.29;101426.17;1644606;87;21618;-77
2021/09/21 03:22:58;;;;;;;62.10;37.17;;;;;;;7.64;82.33;101435.55;1644674;87;21479;-78
2021/09/21 03:25:24;;;;;;;66.33;38.20;;;;;;;7.64;82.36;101431.56;1644619;87;21015;-78
2021/09/21 03:27:50;;;;;;;61.75;35.08;;;;;;;7.65;82.37;101426.63;1637022;87;21031;-78
2021/09/21 03:30:16;;;;;;;55.52;34.53;;;;;;;7.65;82.40;101431.94;1630327;88;21211;-77
2021/09/21 03:32:42;;;;;;;63.38;34.83;;;;;;;7.64;82.42;101430.23;1630495;88;20935;-78
2021/09/21 03:35:09;;;;;;;57.62;34.75;;;;;;;7.63;82.43;101434.73;1630611;88;21088;-77
2021/09/21 03:37:35;;;;;;;59.65;33.70;;;;;;;7.62;82.46;101443.66;1630334;88;21535;-78
2021/09/21 03:40:06;;;;;;;55.15;32.85;;;;;;;7.58;82.48;101436.91;1630389;88;21102;-78
2021/09/21 03:42:31;;;;;;;58.08;34.58;;;;;;;7.54;82.53;101442.95;1630410;88;21509;-78
2021/09/21 03:44:57;;;;;;;52.35;31.85;;;;;;;7.51;82.54;101443.20;1630071;88;21023;-78
2021/09/21 03:47:23;;;;;;;59.80;33.35;;;;;;;7.49;82.54;101445.12;1630302;88;21086;-77
2021/09/21 03:49:49;;;;;;;55.83;32.73;;;;;;;7.46;82.56;101445.38;1630380;87;21031;-78
2021/09/21 03:52:15;;;;;;;58.20;34.73;;;;;;;7.44;82.58;101438.03;1630549;88;21087;-78
2021/09/21 03:54:41;;;;;;;56.73;33.98;;;;;;;7.44;82.61;101445.99;1630232;87;21162;-78
2021/09/21 03:57:07;;;;;;;54.53;33.13;;;;;;;7.42;82.60;101441.27;1630188;87;21102;-78
2021/09/21 03:59:33;;;;;;;49.10;31.02;;;;;;;7.38;82.59;101442.52;1630345;87;21019;-78
2021/09/21 04:01:59;;;;;;;51.10;32.08;;;;;;;7.35;82.62;101442.73;1630364;88;21026;-78
2021/09/21 04:04:25;;;;;;;51.23;31.30;;;;;;;7.37;82.67;101443.47;1630462;87;21511;-78
2021/09/21 04:06:51;;;;;;;45.03;29.42;;;;;;;7.37;82.69;101433.34;1629954;88;21158;-77
2021/09/21 04:09:17;;;;;;;48.60;29.05;;;;;;;7.34;82.69;101435.77;1630213;88;21087;-77
2021/09/21 04:11:43;;;;;;;45.52;29.65;;;;;;;7.34;82.68;101438.42;1630173;87;21043;-77
2021/09/21 04:14:09;;;;;;;48.92;29.18;;;;;;;7.33;82.69;101440.70;1630173;88;21607;-77
2021/09/21 04:16:35;;;;;;;45.63;28.47;;;;;;;7.37;82.72;101439.49;1630070;88;21031;-77
2021/09/21 04:19:02;;;;;;;46.75;28.50;;;;;;;7.42;82.74;101445.77;1630255;88;21985;-78
2021/09/21 04:21:28;;;;;;;47.65;30.00;;;;;;;7.43;82.75;101451.41;1630214;88;21067;-78
2021/09/21 04:23:54;;;;;;;60.38;31.02;;;;;;;7.44;82.80;101451.78;1630376;88;21015;-78
2021/09/21 04:26:20;;;;;;;50.20;29.98;;;;;;;7.46;82.80;101446.70;1630522;87;20920;-77
2021/09/21 04:28:45;;;;;;;55.67;31.85;;;;;;;7.50;82.81;101453.45;1630571;87;20956;-78
2021/09/21 04:31:21;;;;;;;49.33;30.27;;;;;;;7.53;82.84;101444.38;1610606;88;21238;-78
2021/09/21 04:33:47;;;;;;;50.78;30.65;;;;;;;7.57;82.85;101444.98;1630938;87;21540;-78
2021/09/21 04:36:13;;;;;;;51.98;28.55;;;;;;;7.63;82.85;101437.86;1631046;87;21756;-78
2021/09/21 04:38:39;;;;;;;50.83;29.92;;;;;;;7.68;82.88;101440.97;1630916;87;21031;-77
2021/09/21 04:41:05;;;;;;;54.63;30.68;;;;;;;7.70;82.89;101445.69;1631054;88;21042;-78
2021/09/21 04:43:33;;;;;;;70.30;38.80;;;;;;;7.74;82.89;101468.37;1630996;87;21151;-77
2021/09/21 04:45:59;;;;;;;73.55;40.70;;;;;;;7.72;82.89;101472.94;1630779;88;21582;-78
2021/09/21 04:48:25;;;;;;;71.35;41.02;;;;;;;7.68;82.91;101459.08;1631082;87;20892;-78
2021/09/21 04:50:51;;;;;;;65.78;39.58;;;;;;;7.69;82.99;101465.23;1630946;88;21480;-78
2021/09/21 04:53:17;;;;;;;68.42;41.60;;;;;;;7.72;83.00;101465.83;1630888;87;21243;-77
2021/09/21 04:55:43;;;;;;;78.55;43.25;;;;;;;7.74;83.03;101470.51;1630974;88;21166;-78
2021/09/21 04:58:09;;;;;;;72.00;43.33;;;;;;;7.77;83.06;101478.73;1631033;88;21087;-78
2021/09/21 05:00:35;;;;;;;74.30;44.10;;;;;;;7.75;83.06;101477.52;1631160;88;21639;-78
2021/09/21 05:03:01;;;;;;;76.50;44.88;;;;;;;7.76;83.10;101485.00;1630933;87;21528;-78
2021/09/21 05:05:29;;;;;;;83.90;45.15;;;;;;;7.79;83.13;101488.73;1630913;88;21035;-77
2021/09/21 05:07:55;;;;;;;82.05;48.87;;;;;;;7.83;83.16;101494.16;1630706;87;21152;-78
2021/09/21 05:10:21;;;;;;;85.38;50.12;;;;;;;7.83;83.17;101495.00;1631025;87;21051;-78
2021/09/21 05:12:47;;;;;;;84.25;47.90;;;;;;;7.85;83.20;101493.05;1630822;87;21500;-78
2021/09/21 05:15:13;;;;;;;89.55;50.38;;;;;;;7.90;83.21;101500.66;1630904;87;21568;-77
2021/09/21 05:17:39;;;;;;;84.75;49.65;;;;;;;7.92;83.24;101492.06;1624264;88;21032;-77
2021/09/21 05:20:06;;;;;;;82.70;47.58;;;;;;;7.97;83.26;101483.24;1589072;89;21227;-78
2021/09/21 05:22:32;;;;;;;91.60;52.08;;;;;;;7.99;83.28;101486.60;1598458;89;21546;-78
2021/09/21 05:24:58;;;;;;;86.63;49.50;;;;;;;7.98;83.31;101486.27;1598326;89;21077;-77
2021/09/21 05:27:25;;;;;;;91.75;51.08;;;;;;;8.01;83.34;101481.55;1600657;86;21142;-77
2021/09/21 05:29:51;;;;;;;88.10;52.85;;;;;;;8.07;83.35;101478.00;1643640;87;21093;-78
2021/09/21 05:32:17;;;;;;;84.75;49.95;;;;;;;8.10;83.37;101476.41;1644094;87;21092;-77
2021/09/21 05:34:43;;;;;;;87.97;49.98;;;;;;;8.10;83.35;101483.91;1643870;87;21012;-77
2021/09/21 05:37:09;;;;;;;87.70;51.15;;;;;;;8.12;83.40;101503.23;1643860;87;21092;-77
2021/09/21 05:39:35;;;;;;;79.20;49.15;;;;;;;8.14;83.43;101505.75;1644261;87;21567;-78
2021/09/21 05:42:01;;;;;;;80.38;49.85;;;;;;;8.15;83.45;101497.66;1643928;87;21485;-77
2021/09/21 05:44:27;;;;;;;83.82;50.12;;;;;;;8.17;83.48;101487.73;1644163;87;21067;-78
2021/09/21 05:46:53;;;;;;;81.25;49.98;;;;;;;8.20;83.50;101486.15;1642136;87;21671;-78
2021/09/21 05:49:19;;;;;;;100.97;65.57;;;;;;;8.26;83.53;101493.63;1643489;86;21704;-78
2021/09/21 05:51:45;;;;;;;116.85;77.55;;;;;;;8.29;83.53;101489.42;1645232;87;21015;-78
2021/09/21 05:54:11;;;;;;;128.25;85.97;;;;;;;8.37;83.56;101502.07;1650362;86;21028;-78
2021/09/21 05:56:37;;;;;;;137.77;87.47;;;;;;;8.45;83.59;101508.41;1660791;86;21160;-77
2021/09/21 05:59:03;;;;;;;109.57;71.70;;;;;;;8.56;83.62;101509.31;1656279;86;21097;-78
2021/09/21 06:01:30;;;;;;;113.97;69.17;;;;;;;8.61;83.63;101515.10;1642190;87;21047;-78
2021/09/21 06:03:57;;;;;;;114.25;74.35;;;;;;;8.70;83.66;101519.62;1643682;87;21022;-78
2021/09/21 06:06:24;;;;;;;119.90;78.35;;;;;;;8.82;83.70;101518.59;1643967;87;21105;-78
2021/09/21 06:08:50;;;;;;;106.90;68.20;;;;;;;8.93;83.68;101521.19;1643960;87;21721;-78
2021/09/21 06:11:20;;;;;;;108.65;71.97;;;;;;;9.05;83.72;101524.09;1643750;86;21152;-78
2021/09/21 06:13:44;;;;;;;109.25;70.87;;;;;;;9.16;83.75;101514.70;1668442;85;21501;-78
2021/09/21 06:16:10;;;;;;;95.62;62.80;;;;;;;9.34;83.72;101523.75;1647453;85;21085;-78
2021/09/21 06:18:36;;;;;;;97.82;64.47;;;;;;;9.48;83.76;101519.88;1646738;87;21002;-78
2021/09/21 06:21:02;;;;;;;90.15;60.23;;;;;;;9.72;83.74;101514.17;1646670;87;21070;-78
2021/09/21 06:23:28;;;;;;;88.20;57.80;;;;;;;10.04;83.68;101520.12;1644607;87;21076;-79
2021/09/21 06:25:54;;;;;;;79.62;51.65;;;;;;;10.28;83.68;101528.58;1647156;87;21133;-78
2021/09/21 06:28:20;;;;;;;71.28;48.38;;;;;;;10.48;83.70;101518.25;1644342;87;21030;-78
2021/09/21 06:30:46;;;;;;;64.97;41.92;;;;;;;10.71;83.69;101529.95;1644383;87;21042;-78
2021/09/21 06:33:12;;;;;;;55.08;37.50;;;;;;;10.82;83.70;101537.31;1644588;87;21233;-78
2021/09/21 06:35:38;;;;;;;49.25;33.05;;;;;;;10.81;83.71;101542.78;1644340;87;21089;-78
2021/09/21 06:38:04;;;;;;;58.33;34.43;;;;;;;10.72;83.69;101544.98;1627005;87;21563;-78
2021/09/21 06:40:31;;;;;;;53.42;33.38;;;;;;;10.72;83.66;101545.83;1645042;86;21078;-78
2021/09/21 06:42:57;;;;;;;57.45;35.78;;;;;;;10.72;83.63;101546.31;1647629;86;21102;-77
2021/09/21 06:45:23;;;;;;;51.98;33.88;;;;;;;10.75;83.59;101544.70;1654400;85;21179;-77
2021/09/21 06:47:49;;;;;;;52.05;32.20;;;;;;;10.74;83.54;101537.66;1656614;86;20999;-77
2021/09/21 06:50:15;;;;;;;63.87;40.35;;;;;;;10.74;83.48;101541.18;1654983;86;21112;-77
2021/09/21 06:52:41;;;;;;;56.75;35.60;;;;;;;10.72;83.39;101539.65;1655503;86;21547;-76
2021/09/21 06:55:08;;;;;;;55.10;34.55;;;;;;;10.72;83.37;101544.98;1658386;86;21051;-77
2021/09/21 06:57:35;;;;;;;54.48;34.38;;;;;;;10.71;83.33;101549.47;1654941;86;21268;-77
2021/09/21 07:00:01;;;;;;;55.65;35.35;;;;;;;10.74;83.27;101552.34;1651089;86;21105;-77
2021/09/21 07:02:27;;;;;;;54.18;31.70;;;;;;;10.75;83.21;101557.55;1656217;86;21091;-77
2021/09/21 07:04:53;;;;;;;57.03;36.90;;;;;;;10.73;83.16;101560.83;1656917;86;21032;-76
2021/09/21 07:07:19;;;;;;;56.90;33.28;;;;;;;10.70;83.13;101566.95;1653249;86;21022;-77
2021/09/21 07:09:45;;;;;;;54.27;35.23;;;;;;;10.63;83.07;101569.34;1655383;86;21821;-77
2021/09/21 07:12:11;;;;;;;53.00;35.60;;;;;;;10.58;83.04;101570.27;1657900;85;21031;-76
2021/09/21 07:14:37;;;;;;;53.83;35.15;;;;;;;10.55;82.98;101572.37;1649468;86;21075;-76
2021/09/21 07:17:03;;;;;;;52.67;32.78;;;;;;;10.47;82.92;101568.59;1608183;88;21086;-77
2021/09/21 07:19:29;;;;;;;49.05;31.05;;;;;;;10.45;82.88;101571.88;1607473;88;21090;-77
2021/09/21 07:21:55;;;;;;;46.13;30.08;;;;;;;10.42;82.83;101570.83;1608165;88;21054;-76
2021/09/21 07:24:22;;;;;;;48.90;31.62;;;;;;;10.38;82.83;101572.08;1651303;86;21507;-75
2021/09/21 07:26:50;;;;;;;49.98;31.57;;;;;;;10.35;82.80;101569.70;1652007;85;21037;-77
2021/09/21 07:29:19;;;;;;;54.65;33.28;;;;;;;10.30;82.78;101567.96;1658823;86;21091;-77
2021/09/21 07:31:45;;;;;;;54.70;30.85;;;;;;;10.30;82.75;101569.78;1653364;86;21020;-77
2021/09/21 07:34:11;;;;;;;43.33;27.32;;;;;;;10.34;82.73;101576.03;1609269;88;21165;-77
2021/09/21 07:36:37;;;;;;;38.58;26.75;;;;;;;10.36;82.75;101578.06;1613246;88;21062;-78
2021/09/21 07:39:04;;;;;;;43.20;26.80;;;;;;;10.37;82.73;101580.23;1655010;85;21044;-78
2021/09/21 07:41:30;;;;;;;39.03;26.07;;;;;;;10.37;82.69;101583.75;1663727;86;21099;-78
2021/09/21 07:43:56;;;;;;;37.67;26.33;;;;;;;10.41;82.68;101589.66;1656481;86;21572;-77
2021/09/21 07:46:22;;;;;;;37.10;24.60;;;;;;;10.45;82.66;101593.20;1673038;85;21973;-78
2021/09/21 07:48:48;;;;;;;51.20;27.17;;;;;;;10.50;82.65;101590.98;1647420;87;21063;-78
2021/09/21 07:51:14;;;;;;;61.05;33.18;;;;;;;10.51;82.62;101595.83;1648881;87;21079;-78
2021/09/21 07:53:40;;;;;;;56.98;31.48;;;;;;;10.55;82.61;101599.05;1649110;87;21036;-78
2021/09/21 07:56:06;;;;;;;42.75;28.77;;;;;;;10.63;82.58;101600.02;1649044;87;21099;-77
2021/09/21 07:58:32;;;;;;;42.65;27.13;;;;;;;10.71;82.57;101590.83;1647315;87;21177;-78
2021/09/21 08:00:58;;;;;;;48.50;29.52;;;;;;;10.78;82.56;101591.95;1645545;87;21059;-78
2021/09/21 08:03:24;;;;;;;37.88;24.85;;;;;;;10.85;82.53;101604.22;1646584;87;21521;-78
2021/09/21 08:05:50;;;;;;;32.70;22.67;;;;;;;10.94;82.48;101600.72;1648773;86;21385;-78
2021/09/21 08:08:16;;;;;;;35.63;21.42;;;;;;;11.03;82.45;101603.85;1647029;86;20940;-77
2021/09/21 08:10:44;;;;;;;37.70;22.73;;;;;;;11.08;82.46;101606.09;1659455;85;21153;-77
2021/09/21 08:13:10;;;;;;;33.08;21.60;;;;;;;11.14;82.44;101609.03;1648246;85;21861;-77
2021/09/21 08:15:36;;;;;;;35.80;22.80;;;;;;;11.20;82.37;101613.79;1649979;85;21573;-77
2021/09/21 08:18:02;;;;;;;34.63;23.32;;;;;;;11.25;82.34;101618.22;1656408;85;21086;-77
2021/09/21 08:20:29;;;;;;;28.27;20.57;;;;;;;11.29;82.31;101608.09;1647563;86;21060;-77
2021/09/21 08:22:55;;;;;;;32.53;22.02;;;;;;;11.36;82.26;101602.03;1648150;87;21115;-76
2021/09/21 08:25:21;;;;;;;31.35;21.07;;;;;;;11.49;82.22;101605.20;1648018;86;21106;-77
2021/09/21 08:27:47;;;;;;;27.30;19.87;;;;;;;11.57;82.15;101608.97;1664017;86;21083;-77
2021/09/21 08:30:14;;;;;;;28.35;20.30;;;;;;;11.63;82.10;101616.39;1648330;86;21070;-77
2021/09/21 08:32:40;;;;;;;29.23;21.60;;;;;;;11.70;82.01;101612.14;1651487;85;21075;-77
2021/09/21 08:35:08;;;;;;;33.58;22.42;;;;;;;11.73;82.00;101618.07;1653791;86;21208;-77
2021/09/21 08:37:34;;;;;;;26.80;20.35;;;;;;;11.75;81.99;101618.75;1646755;87;21073;-76
2021/09/21 08:40:00;;;;;;;28.07;23.20;;;;;;;11.79;81.94;101623.30;1647637;87;21086;-77
2021/09/21 08:42:26;;;;;;;29.18;19.87;;;;;;;11.89;81.83;101620.94;1648590;86;21056;-77
2021/09/21 08:44:53;;;;;;;29.52;19.07;;;;;;;11.96;81.76;101625.22;1656777;86;21030;-77
2021/09/21 08:47:20;;;;;;;26.35;19.90;;;;;;;12.03;81.71;101622.78;1653601;86;21953;-77
2021/09/21 08:49:47;;;;;;;26.82;20.27;;;;;;;12.01;81.68;101622.43;1666456;85;21523;-78
2021/09/21 08:52:13;;;;;;;27.52;19.62;;;;;;;12.01;81.60;101629.61;1636168;87;21085;-77
2021/09/21 08:54:39;;;;;;;32.23;21.52;;;;;;;11.95;81.52;101639.57;1648135;87;21084;-77
2021/09/21 08:57:07;;;;;;;29.05;21.75;;;;;;;11.90;81.51;101635.14;1648376;87;21102;-77
2021/09/21 08:59:37;;;;;;;33.10;23.57;;;;;;;11.88;81.44;101639.33;1648522;85;21115;-77
2021/09/21 09:02:05;;;;;;;;;;;;;;;11.89;81.38;101642.31;1667199;86;21072;-77
2021/09/21 09:04:31;;;;;;;38.42;26.05;;;;;;;11.94;81.35;101642.73;1665319;86;20456;-77
2021/09/21 09:06:58;;;;;;;33.58;24.23;;;;;;;12.03;81.32;101641.02;1660335;86;21068;-77
2021/09/21 09:09:27;;;;;;;30.95;22.67;;;;;;;12.16;81.24;101637.97;1624636;86;21094;-77
2021/09/21 09:11:55;;;;;;;30.10;22.13;;;;;;;12.21;81.19;101635.18;1673097;84;21809;-77
2021/09/21 09:14:32;;;;;;;31.23;22.80;;;;;;;12.23;81.11;101634.55;1662355;85;21444;-77
2021/09/21 09:17:01;;;;;;;32.85;22.60;;;;;;;12.19;81.07;101619.80;1651099;85;21036;-77
2021/09/21 09:19:35;;;;;;;36.55;27.75;;;;;;;12.08;81.02;101613.31;1651783;86;21505;-77
2021/09/21 09:22:13;;;;;;;36.42;24.05;;;;;;;12.03;80.93;101614.27;1647217;86;21024;-76
2021/09/21 09:24:55;;;;;;;31.75;22.65;;;;;;;12.06;80.91;101613.97;1651968;86;21153;-77
2021/09/21 09:27:35;;;;;;;34.45;26.37;;;;;;;12.19;80.85;101627.81;1666727;86;21490;-77
2021/09/21 09:30:04;;;;;;;32.42;25.72;;;;;;;12.30;80.76;101629.44;1608878;87;21103;-77
2021/09/21 09:32:30;;;;;;;38.88;28.38;;;;;;;12.44;80.68;101625.75;1618800;88;21051;-77
2021/09/21 09:34:59;;;;;;;32.05;23.70;;;;;;;12.52;80.58;101621.80;1618551;88;21546;-77
2021/09/21 09:37:27;;;;;;;33.80;24.35;;;;;;;12.61;80.53;101629.91;1598849;88;21147;-77
2021/09/21 09:40:01;;;;;;;30.43;23.15;;;;;;;12.66;80.50;101616.92;1635877;87;21042;-77
2021/09/21 09:42:34;;;;;;;27.55;21.68;;;;;;;12.71;80.49;101623.98;1624517;87;21674;-77
2021/09/21 09:45:04;;;;;;;27.42;21.87;;;;;;;12.75;80.41;101617.33;1631994;86;21034;-77
2021/09/21 09:47:30;;;;;;;29.87;20.05;;;;;;;12.83;80.29;101610.72;1625467;86;21060;-77
2021/09/21 09:49:56;;;;;;;25.05;20.32;;;;;;;12.98;80.31;101609.17;1608062;89;21761;-78
2021/09/21 09:52:22;;;;;;;26.27;18.57;;;;;;;13.09;80.18;101614.28;1593530;88;21604;-77
2021/09/21 09:54:49;;;;;;;24.05;17.82;;;;;;;13.22;80.07;101618.75;1602154;88;21057;-77
2021/09/21 09:57:15;;;;;;;21.57;14.65;;;;;;;13.34;79.92;101617.47;1609375;89;21066;-77
2021/09/21 09:59:41;;;;;;;20.35;14.80;;;;;;;13.39;79.75;101612.98;1615664;88;21151;-77
2021/09/21 10:02:08;;;;;;;28.05;16.10;;;;;;;13.33;79.57;101611.80;1633288;86;21621;-77
2021/09/21 10:04:35;;;;;;;21.50;13.93;;;;;;;13.37;79.42;101611.80;1632819;87;21061;-77
2021/09/21 10:07:01;;;;;;;20.92;12.43;;;;;;;13.47;79.24;101609.84;1631251;87;21020;-77
2021/09/21 10:09:27;;;;;;;15.30;10.60;;;;;;;13.59;79.07;101606.39;1589723;90;21050;-77
2021/09/21 10:11:56;;;;;;;22.48;12.75;;;;;;;13.78;78.82;101605.31;1630755;87;21153;-78
2021/09/21 10:14:23;;;;;;;15.13;11.20;;;;;;;13.95;78.55;101600.35;1639901;87;21143;-78
2021/09/21 10:17:02;;;;;;;16.23;11.45;;;;;;;14.13;78.28;101602.42;1639851;87;21597;-77
2021/09/21 10:19:28;;;;;;;15.08;11.65;;;;;;;14.23;78.03;101594.23;1638316;86;21031;-78
2021/09/21 10:21:54;;;;;;;19.27;13.08;;;;;;;14.23;77.74;101597.75;1615299;86;21046;-78
2021/09/21 10:24:42;;;;;;;16.07;12.65;;;;;;;14.21;77.46;101594.41;1646347;86;21604;-78
2021/09/21 10:27:15;;;;;;;16.00;10.98;;;;;;;14.24;77.22;101594.08;1632651;86;21170;-78
2021/09/21 10:29:41;;;;;;;16.15;10.95;;;;;;;14.30;76.97;101593.41;1633014;87;21082;-78
2021/09/21 10:32:12;;;;;;;15.78;11.60;;;;;;;14.42;76.81;101592.13;1606246;89;21078;-78
2021/09/21 10:34:43;;;;;;;14.60;11.57;;;;;;;14.50;76.54;101597.48;1606312;89;21078;-78
2021/09/21 10:37:09;;;;;;;14.20;11.25;;;;;;;14.65;76.35;101597.67;1606476;89;21049;-78
2021/09/21 10:39:36;;;;;;;13.45;10.25;;;;;;;14.78;75.68;101578.36;1605720;89;21185;-78
2021/09/21 10:42:09;;;;;;;13.80;10.75;;;;;;;14.78;75.68;101578.36;1599212;89;21070;-78
2021/09/21 10:44:35;;;;;;;13.18;8.83;;;;;;;14.92;75.61;101591.12;1588635;89;21531;-78
2021/09/21 10:47:04;;;;;;;25.65;9.35;;;;;;;14.94;75.35;101583.75;1604536;88;21058;-78
2021/09/21 10:49:41;;;;;;;16.25;11.43;;;;;;;14.92;75.14;101582.56;1611854;88;21110;-77
2021/09/21 10:52:15;;;;;;;14.58;9.83;;;;;;;15.07;74.92;101589.44;1631632;87;21149;-78
2021/09/21 10:54:55;;;;;;;13.60;9.90;;;;;;;15.30;74.68;101601.17;1631592;87;21022;-78
2021/09/21 10:57:38;;;;;;;14.55;10.68;;;;;;;15.34;74.26;101596.29;1631576;86;21041;-78
2021/09/21 11:00:12;;;;;;;12.55;7.65;;;;;;;15.33;74.09;101595.45;1655928;86;21127;-78
2021/09/21 11:02:52;;;;;;;8.35;6.12;;;;;;;15.40;73.72;101591.06;1615358;86;21059;-78
2021/09/21 11:05:19;;;;;;;11.53;6.83;;;;;;;15.37;73.41;101594.09;1618287;87;21229;-77
2021/09/21 11:08:00;;;;;;;11.15;6.35;;;;;;;15.34;73.09;101588.23;1625079;87;21623;-77
2021/09/21 11:10:32;;;;;;;16.30;8.78;;;;;;;15.31;72.77;101597.45;1630425;87;21123;-79
2021/09/21 11:12:59;;;;;;;13.80;8.90;;;;;;;15.37;72.54;101600.81;1598391;87;21565;-78
2021/09/21 11:15:27;;;;;;;14.15;9.15;;;;;;;15.41;72.23;101607.50;1618354;88;21045;-77
2021/09/21 11:18:04;;;;;;;25.60;9.03;;;;;;;15.45;72.01;101603.46;1617025;87;21186;-78
2021/09/21 11:20:31;;;;;;;17.12;7.75;;;;;;;15.55;71.81;101603.83;1628483;86;21014;-78